Time;durP1;ratioP1;P1;durP2;ratioP2;P2;SDS_P1;SDS_P2;PMS_P1;PMS_P2;Temp;Humidity;BMP_temperature;BMP_pressure;BME280_temperature;BME280_humidity;BME280_pressure;Samples;Min_cycle;Max_cycle;Signal;HPM_P1;HPM_P2
2023/12/22 00:01:29;;;;;;;0.40;0.40;;;7.10;99.90;;;;;;4994096;28;20259;-63
2023/12/22 00:03:55;;;;;;;0.30;0.30;;;7.10;99.90;;;;;;4994403;28;20172;-63
2023/12/22 00:06:21;;;;;;;0.40;0.40;;;7.10;99.90;;;;;;4994581;28;20392;-63
2023/12/22 00:08:46;;;;;;;0.30;0.30;;;7.10;99.90;;;;;;4994325;28;20220;-63
2023/12/22 00:11:12;;;;;;;0.30;0.30;;;7.10;99.90;;;;;;4993827;28;20522;-63
2023/12/22 00:13:38;;;;;;;2.20;0.60;;;7.10;99.90;;;;;;4994242;28;20175;-64
2023/12/22 00:16:04;;;;;;;0.30;0.30;;;7.10;99.90;;;;;;4994155;28;20175;-63
2023/12/22 00:18:30;;;;;;;0.30;0.30;;;7.10;99.90;;;;;;4994030;28;20218;-63
2023/12/22 00:20:56;;;;;;;0.30;0.30;;;7.00;99.90;;;;;;4993745;28;20204;-63
2023/12/22 00:23:22;;;;;;;0.70;0.40;;;7.00;99.90;;;;;;4994116;28;20562;-63
2023/12/22 00:25:47;;;;;;;0.30;0.30;;;7.00;99.90;;;;;;4993850;28;20175;-63
2023/12/22 00:28:13;;;;;;;0.30;0.30;;;6.70;99.90;;;;;;4993939;28;20174;-63
2023/12/22 00:30:38;;;;;;;0.30;0.30;;;6.50;99.90;;;;;;4993566;28;20552;-63
2023/12/22 00:33:04;;;;;;;0.40;0.40;;;6.40;99.90;;;;;;4993831;28;20176;-63
2023/12/22 00:35:30;;;;;;;0.40;0.40;;;6.50;99.90;;;;;;4993832;28;20215;-63
2023/12/22 00:37:55;;;;;;;0.30;0.30;;;6.50;99.90;;;;;;4993708;28;20198;-63
2023/12/22 00:40:21;;;;;;;0.40;0.40;;;6.40;99.90;;;;;;4993271;28;20181;-63
2023/12/22 00:42:46;;;;;;;3.33;0.83;;;6.20;99.90;;;;;;4993798;28;20203;-63
2023/12/22 00:45:12;;;;;;;0.40;0.40;;;6.10;99.90;;;;;;4993598;28;20167;-63
2023/12/22 00:47:38;;;;;;;0.70;0.50;;;6.30;99.90;;;;;;4993640;28;20188;-63
2023/12/22 00:50:05;;;;;;;0.30;0.30;;;6.20;99.90;;;;;;4993303;28;20261;-63
2023/12/22 00:52:32;;;;;;;0.30;0.30;;;6.10;99.90;;;;;;4993440;28;20285;-63
2023/12/22 00:54:57;;;;;;;0.30;0.30;;;6.10;99.90;;;;;;4993333;28;20661;-63
2023/12/22 00:57:23;;;;;;;0.40;0.40;;;6.20;99.90;;;;;;4993355;28;20206;-63
2023/12/22 00:59:48;;;;;;;0.57;0.57;;;6.10;99.90;;;;;;4993114;28;20182;-64
2023/12/22 01:02:15;;;;;;;0.50;0.50;;;6.10;99.90;;;;;;4993237;28;20196;-63
2023/12/22 01:04:41;;;;;;;0.30;0.30;;;6.20;99.90;;;;;;4993052;28;20181;-63
2023/12/22 01:07:10;;;;;;;0.40;0.40;;;6.20;99.90;;;;;;4993273;28;20183;-63
2023/12/22 01:09:37;;;;;;;7.25;0.60;;;6.30;99.90;;;;;;4993002;28;20179;-63
2023/12/22 01:12:04;;;;;;;0.30;0.30;;;6.40;99.90;;;;;;4993016;28;20223;-63
2023/12/22 01:14:30;;;;;;;0.40;0.40;;;6.40;99.90;;;;;;4993041;28;20173;-63
2023/12/22 01:16:55;;;;;;;0.30;0.30;;;6.40;99.90;;;;;;4993128;28;20178;-63
2023/12/22 01:19:21;;;;;;;0.40;0.40;;;6.50;99.90;;;;;;4992843;28;20281;-64
2023/12/22 01:21:47;;;;;;;0.30;0.30;;;6.50;99.90;;;;;;4992713;28;20188;-63
2023/12/22 01:24:12;;;;;;;4.40;2.73;;;6.50;99.90;;;;;;4992854;28;20181;-63
2023/12/22 01:26:38;;;;;;;0.50;0.50;;;6.50;99.90;;;;;;4992912;28;20170;-63
2023/12/22 01:29:06;;;;;;;0.60;0.60;;;6.50;99.90;;;;;;4975597;28;20379;-63
2023/12/22 01:31:31;;;;;;;0.55;0.52;;;6.60;99.90;;;;;;4992403;28;20206;-63
2023/12/22 01:33:57;;;;;;;1.17;0.47;;;6.60;99.90;;;;;;4992830;28;20182;-63
2023/12/22 01:36:22;;;;;;;0.47;0.47;;;6.40;99.90;;;;;;4992706;28;20178;-63
2023/12/22 01:38:48;;;;;;;0.57;0.57;;;6.30;99.90;;;;;;4992550;28;20209;-63
2023/12/22 01:41:16;;;;;;;0.80;0.80;;;6.30;99.90;;;;;;4992145;28;20211;-63
2023/12/22 01:43:42;;;;;;;0.68;0.50;;;6.40;99.90;;;;;;4992599;28;20170;-63
2023/12/22 01:46:09;;;;;;;0.70;0.40;;;6.50;99.90;;;;;;4992736;28;20210;-63
2023/12/22 01:48:36;;;;;;;0.60;0.60;;;6.40;99.90;;;;;;4992584;28;20221;-63
2023/12/22 01:51:02;;;;;;;0.52;0.52;;;6.50;99.90;;;;;;4992088;28;20211;-63
2023/12/22 01:53:28;;;;;;;0.30;0.30;;;6.50;99.90;;;;;;4992379;28;20552;-63
2023/12/22 01:55:55;;;;;;;1.37;0.87;;;6.40;99.90;;;;;;4992629;28;20179;-63
2023/12/22 01:58:23;;;;;;;0.40;0.40;;;6.40;99.90;;;;;;4992343;28;20464;-63
2023/12/22 02:00:49;;;;;;;2.88;1.48;;;6.50;99.90;;;;;;4992062;28;20194;-63
2023/12/22 02:03:16;;;;;;;0.50;0.45;;;6.50;99.90;;;;;;4992372;28;20691;-63
2023/12/22 02:05:43;;;;;;;2.30;0.70;;;6.50;99.90;;;;;;4992228;28;20191;-63
2023/12/22 02:08:09;;;;;;;0.30;0.30;;;6.60;99.90;;;;;;4992370;28;20297;-63
2023/12/22 02:10:36;;;;;;;0.83;0.60;;;6.50;99.90;;;;;;4991879;28;20284;-63
2023/12/22 02:13:02;;;;;;;1.02;0.82;;;6.40;99.90;;;;;;4992272;28;20418;-63
2023/12/22 02:15:27;;;;;;;0.52;0.52;;;6.40;99.90;;;;;;4992252;28;20178;-63
2023/12/22 02:18:04;;;;;;;0.50;0.40;;;6.40;99.90;;;;;;4994276;28;20241;-63
2023/12/22 02:20:31;;;;;;;0.40;0.40;;;6.40;99.90;;;;;;4996481;28;20493;-63
2023/12/22 02:22:57;;;;;;;0.45;0.45;;;6.50;99.90;;;;;;4996266;28;20261;-63
2023/12/22 02:25:22;;;;;;;0.40;0.40;;;6.40;99.90;;;;;;4996514;28;20255;-63
2023/12/22 02:27:49;;;;;;;0.30;0.30;;;6.40;99.90;;;;;;4996238;28;20203;-63
2023/12/22 02:30:31;;;;;;;0.40;0.40;;;6.60;99.90;;;;;;4995887;28;20184;-63
2023/12/22 02:33:00;;;;;;;0.30;0.30;;;6.70;99.90;;;;;;4996100;28;20174;-63
2023/12/22 02:35:28;;;;;;;0.75;0.75;;;6.50;99.90;;;;;;4996070;28;20177;-63
2023/12/22 02:37:57;;;;;;;0.30;0.30;;;6.50;99.90;;;;;;4995928;28;20256;-63
2023/12/22 02:40:24;;;;;;;0.40;0.40;;;6.30;99.90;;;;;;4995623;28;20174;-62
2023/12/22 02:42:51;;;;;;;0.43;0.43;;;6.40;99.90;;;;;;4996379;28;20189;-63
2023/12/22 02:45:18;;;;;;;0.40;0.40;;;6.40;99.90;;;;;;4995793;28;20176;-63
2023/12/22 02:47:44;;;;;;;0.30;0.30;;;6.50;99.90;;;;;;4995863;28;20187;-63
2023/12/22 02:50:13;;;;;;;0.30;0.30;;;6.50;99.90;;;;;;4995486;28;20186;-63
2023/12/22 02:52:38;;;;;;;0.30;0.30;;;6.40;99.90;;;;;;4995722;28;20194;-63
2023/12/22 02:55:04;;;;;;;0.50;0.50;;;6.10;99.90;;;;;;4995761;28;20548;-63
2023/12/22 02:57:30;;;;;;;0.75;0.75;;;6.00;99.90;;;;;;4995645;28;20269;-63
2023/12/22 02:59:57;;;;;;;0.30;0.30;;;6.10;99.90;;;;;;4995322;28;20704;-62
2023/12/22 03:02:22;;;;;;;0.50;0.50;;;6.30;99.90;;;;;;4995495;28;20187;-63
2023/12/22 03:04:48;;;;;;;0.30;0.30;;;6.40;99.90;;;;;;4995590;28;20653;-63
2023/12/22 03:07:14;;;;;;;0.30;0.30;;;6.50;99.90;;;;;;4995541;28;20433;-63
2023/12/22 03:09:41;;;;;;;0.30;0.30;;;6.50;99.90;;;;;;4995313;28;20176;-63
2023/12/22 03:12:07;;;;;;;0.68;0.68;;;6.40;99.90;;;;;;4995193;28;20195;-63
2023/12/22 03:14:33;;;;;;;0.40;0.40;;;6.50;99.90;;;;;;4995270;28;20171;-63
2023/12/22 03:17:00;;;;;;;0.40;0.40;;;6.60;99.90;;;;;;4995268;28;20262;-63
2023/12/22 03:19:25;;;;;;;0.40;0.40;;;6.50;99.90;;;;;;4995074;28;20528;-63
2023/12/22 03:21:51;;;;;;;0.47;0.47;;;6.50;99.90;;;;;;4994900;28;20250;-63
2023/12/22 03:24:19;;;;;;;0.30;0.30;;;6.60;99.90;;;;;;4995224;28;20167;-63
2023/12/22 03:26:45;;;;;;;0.35;0.35;;;6.70;99.90;;;;;;4995149;28;20178;-63
2023/12/22 03:29:11;;;;;;;0.50;0.50;;;6.60;99.90;;;;;;4994927;28;20182;-63
2023/12/22 03:31:37;;;;;;;0.97;0.97;;;6.20;99.90;;;;;;4993618;28;20728;-63
2023/12/22 03:34:02;;;;;;;1.27;0.40;;;5.80;99.90;;;;;;4995011;28;20179;-63
2023/12/22 03:36:28;;;;;;;0.60;0.37;;;5.70;99.90;;;;;;4994847;28;20412;-63
2023/12/22 03:38:54;;;;;;;0.40;0.40;;;5.80;99.90;;;;;;4994833;28;20808;-63
2023/12/22 03:41:20;;;;;;;0.40;0.40;;;6.00;99.90;;;;;;4994487;28;20578;-63
2023/12/22 03:43:45;;;;;;;0.32;0.32;;;6.20;99.90;;;;;;4994821;28;20173;-61
2023/12/22 03:46:11;;;;;;;2.20;0.60;;;6.20;99.90;;;;;;4994749;28;20181;-60
2023/12/22 03:48:37;;;;;;;0.30;0.30;;;6.30;99.90;;;;;;4995194;28;20176;-60
2023/12/22 03:51:02;;;;;;;0.90;0.87;;;6.30;99.90;;;;;;4994188;28;20279;-60
2023/12/22 03:53:28;;;;;;;0.40;0.40;;;6.30;99.90;;;;;;4994931;28;20257;-60
2023/12/22 03:55:54;;;;;;;1.17;0.93;;;6.30;99.90;;;;;;4994644;28;20723;-60
2023/12/22 03:58:20;;;;;;;0.52;0.52;;;6.30;99.90;;;;;;4994557;28;20295;-60
2023/12/22 04:00:45;;;;;;;0.30;0.30;;;6.30;99.90;;;;;;4994305;28;20272;-60
2023/12/22 04:03:11;;;;;;;0.40;0.40;;;6.30;99.90;;;;;;4994577;28;20206;-60
2023/12/22 04:05:37;;;;;;;0.30;0.30;;;6.20;99.90;;;;;;4994349;28;20171;-61
2023/12/22 04:08:02;;;;;;;0.30;0.30;;;6.30;99.90;;;;;;4994435;28;20172;-60
2023/12/22 04:10:28;;;;;;;0.60;0.60;;;6.10;99.90;;;;;;4994048;28;20175;-61
2023/12/22 04:12:54;;;;;;;0.40;0.40;;;6.10;99.90;;;;;;4994405;28;20995;-60
2023/12/22 04:15:19;;;;;;;0.50;0.50;;;6.20;99.90;;;;;;4994405;28;20533;-60
2023/12/22 04:17:45;;;;;;;0.73;0.73;;;6.20;99.90;;;;;;4994223;28;20193;-61
2023/12/22 04:20:12;;;;;;;0.50;0.50;;;6.30;99.90;;;;;;4993742;28;20197;-61
2023/12/22 04:22:37;;;;;;;0.63;0.60;;;6.30;99.90;;;;;;4994234;28;20207;-60
2023/12/22 04:25:03;;;;;;;0.30;0.30;;;6.30;99.90;;;;;;4994104;28;20240;-60
2023/12/22 04:27:29;;;;;;;0.30;0.30;;;6.20;99.90;;;;;;4994426;28;20180;-61
2023/12/22 04:29:55;;;;;;;0.53;0.53;;;6.20;99.90;;;;;;4994029;28;20491;-60
2023/12/22 04:32:20;;;;;;;0.30;0.30;;;6.10;99.90;;;;;;4993934;28;20207;-61
2023/12/22 04:34:46;;;;;;;0.40;0.40;;;6.20;99.90;;;;;;4993854;28;20263;-61
2023/12/22 04:37:11;;;;;;;0.50;0.50;;;6.10;99.90;;;;;;4993818;28;20186;-60
2023/12/22 04:39:37;;;;;;;0.30;0.30;;;6.00;99.90;;;;;;4993234;28;20185;-61
2023/12/22 04:42:03;;;;;;;0.50;0.50;;;6.00;99.90;;;;;;4993447;28;20685;-61
2023/12/22 04:44:28;;;;;;;0.77;0.77;;;6.00;99.90;;;;;;4993704;28;20249;-61
2023/12/22 04:46:54;;;;;;;0.30;0.30;;;6.10;99.90;;;;;;4993690;28;20174;-60
2023/12/22 04:49:19;;;;;;;2.33;0.53;;;5.90;99.90;;;;;;4993425;28;20184;-61
2023/12/22 04:51:45;;;;;;;0.47;0.47;;;5.80;99.90;;;;;;4993341;28;20221;-60
2023/12/22 04:54:11;;;;;;;0.40;0.40;;;5.90;99.90;;;;;;4993651;28;20279;-61
2023/12/22 04:56:36;;;;;;;0.40;0.40;;;6.00;99.90;;;;;;4993980;28;20189;-60
2023/12/22 04:59:02;;;;;;;0.97;0.87;;;6.00;99.90;;;;;;4993385;28;20208;-61
2023/12/22 05:01:28;;;;;;;0.60;0.60;;;6.00;99.90;;;;;;4993066;28;20707;-61
2023/12/22 05:03:54;;;;;;;0.60;0.60;;;6.00;99.90;;;;;;4993296;28;20182;-60
2023/12/22 05:06:20;;;;;;;0.67;0.67;;;5.80;99.90;;;;;;4993508;28;20184;-60
2023/12/22 05:08:46;;;;;;;13.50;1.30;;;5.80;99.90;;;;;;4993566;28;20474;-60
2023/12/22 05:11:12;;;;;;;0.40;0.40;;;5.80;99.90;;;;;;4992976;28;20238;-60
2023/12/22 05:13:38;;;;;;;20.23;0.82;;;5.90;99.90;;;;;;4993282;28;20187;-60
2023/12/22 05:16:04;;;;;;;5.10;1.90;;;6.00;99.90;;;;;;4993210;28;20562;-61
2023/12/22 05:18:30;;;;;;;0.40;0.40;;;5.80;99.90;;;;;;4992981;28;20215;-61
2023/12/22 05:20:55;;;;;;;0.40;0.40;;;5.70;99.90;;;;;;4992750;28;20613;-61
2023/12/22 05:23:21;;;;;;;0.40;0.40;;;5.80;99.90;;;;;;4993053;28;20637;-60
2023/12/22 05:25:47;;;;;;;0.40;0.40;;;5.90;99.90;;;;;;4992973;28;20170;-61
2023/12/22 05:28:13;;;;;;;0.50;0.50;;;6.00;99.90;;;;;;4993061;28;20190;-60
2023/12/22 05:30:38;;;;;;;0.40;0.40;;;6.00;99.90;;;;;;4992553;28;20650;-60
2023/12/22 05:33:04;;;;;;;0.97;0.70;;;6.10;99.90;;;;;;4992841;28;20259;-60
2023/12/22 05:35:29;;;;;;;0.30;0.30;;;6.00;99.90;;;;;;4992890;28;20263;-61
2023/12/22 05:37:55;;;;;;;0.30;0.30;;;5.90;99.90;;;;;;4992772;28;20207;-60
2023/12/22 05:40:21;;;;;;;0.30;0.30;;;5.90;99.90;;;;;;4992340;28;20177;-60
2023/12/22 05:42:46;;;;;;;0.40;0.40;;;5.70;99.90;;;;;;4992994;28;20192;-60
2023/12/22 05:45:13;;;;;;;1.17;0.53;;;5.70;99.90;;;;;;4992676;28;20172;-60
2023/12/22 05:47:39;;;;;;;1.10;1.10;;;5.80;99.90;;;;;;4992575;28;20677;-60
2023/12/22 05:50:05;;;;;;;0.40;0.40;;;5.70;99.90;;;;;;4992473;28;20184;-60
2023/12/22 05:52:31;;;;;;;5.47;0.85;;;5.80;99.90;;;;;;4991663;28;20211;-60
2023/12/22 05:54:56;;;;;;;0.40;0.40;;;5.80;99.90;;;;;;4992516;28;20181;-60
2023/12/22 05:57:24;;;;;;;0.30;0.30;;;5.80;99.90;;;;;;4992433;28;20170;-60
2023/12/22 05:59:50;;;;;;;0.40;0.40;;;5.90;99.90;;;;;;4992241;28;20589;-61
2023/12/22 06:02:16;;;;;;;0.40;0.40;;;5.90;99.90;;;;;;4992375;28;20196;-61
2023/12/22 06:04:41;;;;;;;0.40;0.40;;;5.90;99.90;;;;;;4992445;28;20184;-60
2023/12/22 06:07:07;;;;;;;1.57;1.10;;;5.90;99.90;;;;;;4992490;28;20187;-61
2023/12/22 06:09:32;;;;;;;0.50;0.50;;;5.90;99.90;;;;;;4992314;28;20171;-60
2023/12/22 06:11:58;;;;;;;0.40;0.40;;;6.00;99.90;;;;;;4992215;28;20687;-61
2023/12/22 06:14:24;;;;;;;0.40;0.40;;;6.00;99.90;;;;;;4992387;28;20731;-60
2023/12/22 06:16:50;;;;;;;0.37;0.37;;;6.00;99.90;;;;;;4992247;28;20258;-61
2023/12/22 06:19:16;;;;;;;0.30;0.30;;;5.90;99.90;;;;;;4992121;28;20215;-60
2023/12/22 06:21:42;;;;;;;0.50;0.50;;;5.90;99.90;;;;;;4992086;28;20252;-60
2023/12/22 06:24:08;;;;;;;0.40;0.40;;;5.80;99.90;;;;;;4992609;28;20407;-60
2023/12/22 06:26:34;;;;;;;1.55;0.60;;;5.90;99.90;;;;;;4992350;28;20164;-60
2023/12/22 06:28:59;;;;;;;0.40;0.40;;;5.90;99.90;;;;;;4992208;28;20234;-60
2023/12/22 06:31:25;;;;;;;7.87;1.20;;;6.00;99.90;;;;;;4991702;28;20235;-60
2023/12/22 06:33:51;;;;;;;0.37;0.37;;;5.90;99.90;;;;;;4992379;28;20443;-60
2023/12/22 06:36:24;;;;;;;0.57;0.57;;;5.80;99.90;;;;;;4992150;28;20474;-61
2023/12/22 06:38:54;;;;;;;0.30;0.30;;;5.80;99.90;;;;;;4992234;28;20220;-61
2023/12/22 06:41:27;;;;;;;0.52;0.52;;;5.70;99.90;;;;;;4991656;28;20230;-60
2023/12/22 06:43:53;;;;;;;1.15;1.05;;;5.70;99.90;;;;;;4991953;28;20184;-61
2023/12/22 06:46:20;;;;;;;0.30;0.30;;;5.80;99.90;;;;;;4992116;28;20223;-60
2023/12/22 06:48:46;;;;;;;0.70;0.70;;;5.80;99.90;;;;;;4991945;28;20419;-61
2023/12/22 06:51:22;;;;;;;0.50;0.50;;;5.80;99.90;;;;;;4991630;28;20200;-60
2023/12/22 06:53:49;;;;;;;0.77;0.77;;;5.90;99.90;;;;;;4992112;28;20981;-60
2023/12/22 06:56:25;;;;;;;0.40;0.40;;;5.80;99.90;;;;;;4992013;28;20263;-60
2023/12/22 06:58:53;;;;;;;14.02;0.68;;;5.80;99.90;;;;;;4991877;28;20228;-60
2023/12/22 07:01:22;;;;;;;5.07;2.10;;;5.80;99.90;;;;;;4991483;28;20201;-61
2023/12/22 07:03:49;;;;;;;0.40;0.40;;;5.90;99.90;;;;;;4993697;28;20164;-60
2023/12/22 07:06:18;;;;;;;0.82;0.50;;;5.90;99.90;;;;;;4995642;28;20527;-60
2023/12/22 07:08:44;;;;;;;0.30;0.30;;;5.90;99.90;;;;;;4995476;28;20185;-60
2023/12/22 07:11:10;;;;;;;0.30;0.30;;;5.70;99.90;;;;;;4995096;28;20278;-60
2023/12/22 07:13:38;;;;;;;0.40;0.40;;;5.80;99.90;;;;;;4995511;28;20183;-60
2023/12/22 07:16:05;;;;;;;0.88;0.60;;;5.90;99.90;;;;;;4995394;28;20326;-61
2023/12/22 07:18:30;;;;;;;0.30;0.30;;;5.80;99.90;;;;;;4995268;28;20235;-60
2023/12/22 07:20:57;;;;;;;0.73;0.67;;;5.80;99.90;;;;;;4994972;28;20275;-60
2023/12/22 07:23:23;;;;;;;1.88;0.60;;;5.60;99.90;;;;;;4995209;28;20179;-60
2023/12/22 07:25:49;;;;;;;0.30;0.30;;;5.70;99.90;;;;;;4995282;28;20658;-61
2023/12/22 07:28:15;;;;;;;0.40;0.40;;;5.80;99.90;;;;;;4995204;28;20175;-60
2023/12/22 07:30:41;;;;;;;0.30;0.30;;;5.80;99.90;;;;;;4994896;28;20319;-60
2023/12/22 07:33:06;;;;;;;0.70;0.70;;;5.70;99.90;;;;;;4994997;28;20259;-60
2023/12/22 07:35:32;;;;;;;0.50;0.40;;;5.80;99.90;;;;;;4995074;28;20255;-60
2023/12/22 07:37:58;;;;;;;0.40;0.40;;;5.80;99.90;;;;;;4994888;28;20326;-60
2023/12/22 07:40:23;;;;;;;0.80;0.80;;;5.90;99.90;;;;;;4994555;28;20563;-60
2023/12/22 07:42:50;;;;;;;0.57;0.57;;;5.80;99.90;;;;;;4995055;28;20177;-60
2023/12/22 07:45:16;;;;;;;0.40;0.40;;;5.70;99.90;;;;;;4994955;28;20273;-60
2023/12/22 07:47:42;;;;;;;0.40;0.40;;;5.70;99.90;;;;;;4994786;28;20286;-60
2023/12/22 07:50:08;;;;;;;0.37;0.37;;;5.60;99.90;;;;;;4994538;28;20176;-60
2023/12/22 07:52:38;;;;;;;0.50;0.50;;;5.60;99.90;;;;;;4994581;28;20581;-60
2023/12/22 07:55:06;;;;;;;0.40;0.40;;;5.50;99.90;;;;;;4994639;28;20172;-60
2023/12/22 07:57:32;;;;;;;0.40;0.40;;;5.50;99.90;;;;;;4994771;28;20182;-60
2023/12/22 07:59:58;;;;;;;0.87;0.80;;;5.60;99.90;;;;;;4994352;28;20304;-60
2023/12/22 08:02:23;;;;;;;0.50;0.50;;;5.60;99.90;;;;;;4994479;28;20191;-60
2023/12/22 08:04:50;;;;;;;0.60;0.60;;;5.60;99.90;;;;;;4994537;28;20211;-60
2023/12/22 08:07:16;;;;;;;0.50;0.50;;;5.60;99.90;;;;;;4994370;28;20176;-61
2023/12/22 08:09:41;;;;;;;0.40;0.40;;;5.70;99.90;;;;;;4994348;28;20642;-61
2023/12/22 08:12:08;;;;;;;1.83;1.73;;;5.60;99.90;;;;;;4994163;28;20809;-60
2023/12/22 08:14:33;;;;;;;0.55;0.55;;;5.60;99.90;;;;;;4993568;28;20177;-61
2023/12/22 08:16:59;;;;;;;0.40;0.40;;;5.70;99.90;;;;;;4994188;28;20182;-60
2023/12/22 08:19:25;;;;;;;0.60;0.60;;;5.70;99.90;;;;;;4994060;28;20208;-61
2023/12/22 08:21:53;;;;;;;0.40;0.40;;;5.80;99.90;;;;;;4993914;28;20201;-60
2023/12/22 08:24:19;;;;;;;3.70;1.20;;;5.90;99.90;;;;;;4994238;28;20170;-60
2023/12/22 08:26:44;;;;;;;0.40;0.40;;;5.90;99.90;;;;;;4994214;28;20172;-60
2023/12/22 08:29:10;;;;;;;1.50;1.40;;;5.80;99.90;;;;;;4994085;28;20726;-60
2023/12/22 08:31:36;;;;;;;0.60;0.60;;;5.90;99.90;;;;;;4993689;28;20579;-60
2023/12/22 08:34:01;;;;;;;0.30;0.30;;;5.90;99.90;;;;;;4994008;28;20257;-61
2023/12/22 08:36:27;;;;;;;0.43;0.43;;;5.90;99.90;;;;;;4993879;28;20172;-60
2023/12/22 08:38:53;;;;;;;0.60;0.60;;;6.00;99.90;;;;;;4993787;28;20627;-60
2023/12/22 08:41:18;;;;;;;2.20;2.10;;;6.10;99.90;;;;;;4993373;28;20200;-61
2023/12/22 08:43:44;;;;;;;1.80;1.70;;;6.20;99.90;;;;;;4993827;28;20172;-61
2023/12/22 08:46:10;;;;;;;1.57;0.70;;;6.20;99.90;;;;;;4993714;28;20437;-60
2023/12/22 08:48:36;;;;;;;0.80;0.80;;;6.10;99.90;;;;;;4993654;28;20265;-60
2023/12/22 08:51:01;;;;;;;0.50;0.50;;;6.00;99.90;;;;;;4993223;28;20427;-60
2023/12/22 08:53:29;;;;;;;0.40;0.40;;;6.10;99.90;;;;;;4993674;28;20554;-61
2023/12/22 08:55:56;;;;;;;0.40;0.40;;;6.00;99.90;;;;;;4993725;28;20605;-61
2023/12/22 08:58:22;;;;;;;0.98;0.98;;;6.00;99.90;;;;;;4993374;28;20683;-60
2023/12/22 09:00:48;;;;;;;0.50;0.50;;;6.00;99.90;;;;;;4993078;28;20198;-60
2023/12/22 09:03:13;;;;;;;1.37;1.27;;;6.10;99.90;;;;;;4993474;28;20195;-60
2023/12/22 09:05:39;;;;;;;0.37;0.37;;;5.90;99.90;;;;;;4993291;28;20168;-60
2023/12/22 09:08:05;;;;;;;0.50;0.50;;;5.90;99.90;;;;;;4993338;28;20289;-60
2023/12/22 09:10:32;;;;;;;0.93;0.70;;;5.90;99.90;;;;;;4993022;28;20430;-60
2023/12/22 09:12:58;;;;;;;0.88;0.73;;;6.00;99.90;;;;;;4993214;28;20188;-60
2023/12/22 09:15:23;;;;;;;0.30;0.30;;;6.20;99.90;;;;;;4993200;28;20168;-60
2023/12/22 09:17:51;;;;;;;13.97;1.00;;;6.20;99.90;;;;;;4993097;28;20532;-60
2023/12/22 09:20:17;;;;;;;1.02;0.43;;;6.20;99.90;;;;;;4992689;28;20469;-61
2023/12/22 09:22:42;;;;;;;1.23;0.50;;;6.20;99.90;;;;;;4993028;28;20193;-60
2023/12/22 09:25:11;;;;;;;0.93;0.90;;;6.20;99.90;;;;;;4993004;28;20166;-60
2023/12/22 09:27:37;;;;;;;0.30;0.30;;;6.20;99.90;;;;;;4992898;28;20177;-60
2023/12/22 09:30:06;;;;;;;0.40;0.40;;;6.10;99.90;;;;;;4992557;28;20268;-60
2023/12/22 09:32:32;;;;;;;0.98;0.60;;;6.20;99.90;;;;;;4993252;28;20856;-60
2023/12/22 09:34:59;;;;;;;1.23;0.83;;;6.20;99.90;;;;;;4992813;28;20291;-60
2023/12/22 09:37:24;;;;;;;7.30;0.82;;;6.00;99.90;;;;;;4992811;28;20572;-60
2023/12/22 09:39:50;;;;;;;0.70;0.70;;;5.90;99.90;;;;;;4992489;28;20172;-61
2023/12/22 09:42:16;;;;;;;0.40;0.40;;;6.00;99.90;;;;;;4992569;28;20204;-63
2023/12/22 09:44:43;;;;;;;4.00;3.22;;;6.10;99.90;;;;;;4993088;28;20561;-63
2023/12/22 09:47:12;;;;;;;0.45;0.45;;;6.00;99.90;;;;;;4992676;28;20176;-63
2023/12/22 09:49:38;;;;;;;1.10;1.00;;;5.80;99.90;;;;;;4992463;28;20178;-63
2023/12/22 09:52:06;;;;;;;0.30;0.30;;;6.00;99.90;;;;;;4992398;28;20251;-63
2023/12/22 09:54:32;;;;;;;0.60;0.60;;;6.20;99.90;;;;;;4992585;28;20180;-63
2023/12/22 09:57:00;;;;;;;0.38;0.38;;;6.30;99.90;;;;;;4992558;28;20268;-63
2023/12/22 09:59:28;;;;;;;0.40;0.40;;;6.40;99.90;;;;;;4992295;28;20250;-63
2023/12/22 10:01:55;;;;;;;0.93;0.80;;;6.50;99.90;;;;;;4992154;28;20187;-63
2023/12/22 10:04:21;;;;;;;0.68;0.60;;;6.50;99.90;;;;;;4992487;28;20179;-63
2023/12/22 10:06:48;;;;;;;0.30;0.30;;;6.50;99.90;;;;;;4992472;28;20550;-63
2023/12/22 10:09:15;;;;;;;0.50;0.50;;;6.40;99.90;;;;;;4992471;28;20185;-63
2023/12/22 10:11:44;;;;;;;0.30;0.30;;;6.20;99.90;;;;;;4992048;28;20201;-63
2023/12/22 10:14:10;;;;;;;8.73;1.67;;;6.20;99.90;;;;;;4992778;28;20214;-63
2023/12/22 10:16:39;;;;;;;0.40;0.40;;;6.10;99.90;;;;;;4992307;28;20607;-63
2023/12/22 10:19:06;;;;;;;0.30;0.30;;;6.30;99.90;;;;;;4992257;28;20252;-63
2023/12/22 10:21:32;;;;;;;0.47;0.47;;;6.50;99.90;;;;;;4992031;28;20209;-63
2023/12/22 10:23:58;;;;;;;0.30;0.30;;;6.60;99.90;;;;;;4992329;28;20198;-63
2023/12/22 10:26:24;;;;;;;0.43;0.43;;;6.60;99.90;;;;;;4992296;28;20729;-63
2023/12/22 10:28:50;;;;;;;5.33;1.40;;;6.50;99.90;;;;;;4992073;28;20186;-62
2023/12/22 10:31:17;;;;;;;0.40;0.40;;;6.60;99.90;;;;;;4992034;28;20209;-63
2023/12/22 10:33:44;;;;;;;0.43;0.43;;;6.50;99.90;;;;;;4992193;28;20183;-63
2023/12/22 10:36:10;;;;;;;0.40;0.40;;;6.50;99.90;;;;;;4992275;28;20178;-62
2023/12/22 10:38:36;;;;;;;0.50;0.50;;;6.50;99.90;;;;;;4993716;28;20573;-63
2023/12/22 10:41:02;;;;;;;0.40;0.40;;;6.50;99.90;;;;;;4995557;28;20206;-63
2023/12/22 10:43:28;;;;;;;0.43;0.40;;;6.50;99.90;;;;;;4995874;28;20548;-63
2023/12/22 10:45:54;;;;;;;1.40;1.30;;;6.60;99.90;;;;;;4996101;28;20617;-63
2023/12/22 10:48:21;;;;;;;0.30;0.30;;;6.70;99.90;;;;;;4995936;28;20202;-63
2023/12/22 10:50:47;;;;;;;0.45;0.45;;;6.70;99.90;;;;;;4995542;28;20222;-63
2023/12/22 10:53:13;;;;;;;0.38;0.38;;;6.70;99.90;;;;;;4995841;28;20183;-63
2023/12/22 10:55:38;;;;;;;0.93;0.67;;;6.70;99.90;;;;;;4995874;28;20186;-63
2023/12/22 10:58:05;;;;;;;0.30;0.30;;;6.80;99.90;;;;;;4995566;28;20459;-63
2023/12/22 11:00:33;;;;;;;0.30;0.30;;;6.90;99.90;;;;;;4995333;28;20711;-63
2023/12/22 11:03:04;;;;;;;0.93;0.93;;;6.90;99.90;;;;;;4995759;28;20187;-63
2023/12/22 11:05:33;;;;;;;0.40;0.40;;;7.00;99.90;;;;;;4995627;28;20277;-63
2023/12/22 11:08:03;;;;;;;0.40;0.40;;;6.90;99.90;;;;;;4995559;28;20262;-63
2023/12/22 11:10:31;;;;;;;0.30;0.30;;;6.80;99.90;;;;;;4995120;28;20176;-62
2023/12/22 11:12:58;;;;;;;0.40;0.40;;;6.80;99.90;;;;;;4995462;28;20188;-63
2023/12/22 11:15:25;;;;;;;0.55;0.55;;;6.80;99.90;;;;;;4995467;28;20185;-63
2023/12/22 11:17:52;;;;;;;0.75;0.75;;;6.80;99.90;;;;;;4995344;28;20216;-62
2023/12/22 11:20:18;;;;;;;0.30;0.30;;;6.80;99.90;;;;;;4995064;28;20225;-63
2023/12/22 11:22:44;;;;;;;0.50;0.50;;;6.80;99.90;;;;;;4995211;28;20194;-63
2023/12/22 11:25:10;;;;;;;0.30;0.30;;;6.70;99.90;;;;;;4995149;28;20192;-63
2023/12/22 11:27:37;;;;;;;0.40;0.40;;;6.70;99.90;;;;;;4995390;28;20185;-62
2023/12/22 11:30:08;;;;;;;0.40;0.40;;;6.70;99.90;;;;;;4994800;28;20416;-62
2023/12/22 11:32:34;;;;;;;0.85;0.52;;;6.80;99.90;;;;;;4995071;28;20273;-62
2023/12/22 11:35:00;;;;;;;0.40;0.40;;;6.80;99.90;;;;;;4995120;28;20269;-63
2023/12/22 11:37:25;;;;;;;2.73;2.20;;;6.90;99.90;;;;;;4994951;28;20250;-63
2023/12/22 11:39:52;;;;;;;0.40;0.40;;;6.80;99.90;;;;;;4995150;28;20216;-63
2023/12/22 11:42:43;;;;;;;0.40;0.40;;;6.80;99.90;;;;;;4994716;28;20290;-62
2023/12/22 11:45:13;;;;;;;0.40;0.40;;;6.80;99.90;;;;;;4995229;28;20186;-63
2023/12/22 11:47:40;;;;;;;0.30;0.30;;;6.90;99.90;;;;;;4994927;28;20266;-63
2023/12/22 11:50:12;;;;;;;0.52;0.50;;;6.90;99.90;;;;;;4993132;28;20210;-63
2023/12/22 11:52:39;;;;;;;1.48;1.02;;;7.10;99.90;;;;;;4994779;28;20219;-63
2023/12/22 11:55:06;;;;;;;0.57;0.50;;;7.00;99.90;;;;;;4994547;28;20180;-63
2023/12/22 11:57:32;;;;;;;0.30;0.30;;;7.00;99.90;;;;;;4994553;28;20266;-63
2023/12/22 12:00:06;;;;;;;0.30;0.30;;;7.00;99.90;;;;;;4994435;28;20565;-63
2023/12/22 12:02:37;;;;;;;0.30;0.30;;;6.70;99.90;;;;;;4994522;28;20746;-63
2023/12/22 12:05:04;;;;;;;0.50;0.50;;;6.70;99.90;;;;;;4994758;28;20184;-63
2023/12/22 12:07:47;;;;;;;0.30;0.30;;;6.90;99.90;;;;;;4994523;28;20558;-63
2023/12/22 12:10:33;;;;;;;0.40;0.40;;;7.00;99.90;;;;;;4994042;28;20484;-63
2023/12/22 12:13:08;;;;;;;0.30;0.30;;;7.10;99.90;;;;;;4994243;28;20170;-62
2023/12/22 12:15:35;;;;;;;0.40;0.40;;;7.00;99.90;;;;;;4994476;28;20185;-63
2023/12/22 12:18:01;;;;;;;0.30;0.30;;;6.90;99.90;;;;;;4994257;28;20202;-63
2023/12/22 12:20:27;;;;;;;0.35;0.35;;;7.10;99.90;;;;;;4993981;28;20551;-63
2023/12/22 12:22:54;;;;;;;0.40;0.40;;;6.80;99.90;;;;;;4994188;28;20179;-62
2023/12/22 12:25:26;;;;;;;0.30;0.30;;;6.70;99.90;;;;;;4994119;28;20183;-62
2023/12/22 12:28:05;;;;;;;0.30;0.30;;;6.90;99.90;;;;;;4994111;28;20635;-62
2023/12/22 12:30:32;;;;;;;0.30;0.30;;;7.10;99.90;;;;;;4993674;28;20672;-63
2023/12/22 12:33:11;;;;;;;0.40;0.40;;;7.00;99.90;;;;;;4994006;28;20676;-63
2023/12/22 12:35:43;;;;;;;0.30;0.30;;;7.00;99.90;;;;;;4994040;28;20191;-63
2023/12/22 12:38:09;;;;;;;0.40;0.40;;;7.00;99.90;;;;;;4993692;28;20201;-62
2023/12/22 12:40:39;;;;;;;0.30;0.30;;;7.00;99.90;;;;;;4993400;28;20168;-62
2023/12/22 12:43:05;;;;;;;0.30;0.30;;;7.00;99.90;;;;;;4993824;28;20174;-62
2023/12/22 12:45:31;;;;;;;0.30;0.30;;;7.10;99.90;;;;;;4993780;28;20182;-63
2023/12/22 12:48:01;;;;;;;0.30;0.30;;;7.10;99.90;;;;;;4993731;28;20175;-63
2023/12/22 12:50:28;;;;;;;0.30;0.30;;;7.10;99.90;;;;;;4993140;28;20188;-63
2023/12/22 12:52:55;;;;;;;0.40;0.40;;;7.10;99.90;;;;;;4993589;28;20190;-62
2023/12/22 12:55:22;;;;;;;0.40;0.40;;;7.10;99.90;;;;;;4993645;28;20229;-63